sensor_id;sensor_type;location;lat;lon;timestamp;P1;durP1;ratioP1;P2;durP2;ratioP2
7729;SDS011;3908;52.310;7.230;2023-10-09T00:27:23;50.87;;;48.37;;
7729;SDS011;3908;52.310;7.230;2023-10-09T00:30:13;55.27;;;52.63;;
7729;SDS011;3908;52.310;7.230;2023-10-09T00:33:00;54.50;;;52.03;;
7729;SDS011;3908;52.310;7.230;2023-10-09T00:35:53;54.93;;;52.13;;
7729;SDS011;3908;52.310;7.230;2023-10-09T00:38:40;50.43;;;47.87;;
7729;SDS011;3908;52.310;7.230;2023-10-09T00:41:31;48.40;;;45.73;;
7729;SDS011;3908;52.310;7.230;2023-10-09T00:44:22;42.27;;;39.97;;
7729;SDS011;3908;52.310;7.230;2023-10-09T00:47:10;34.30;;;32.60;;
7729;SDS011;3908;52.310;7.230;2023-10-09T00:50:08;33.43;;;31.57;;
7729;SDS011;3908;52.310;7.230;2023-10-09T00:53:06;28.77;;;27.10;;
7729;SDS011;3908;52.310;7.230;2023-10-09T00:55:57;26.67;;;25.13;;
7729;SDS011;3908;52.310;7.230;2023-10-09T00:58:49;21.83;;;20.43;;
7729;SDS011;3908;52.310;7.230;2023-10-09T01:01:43;20.87;;;19.57;;
7729;SDS011;3908;52.310;7.230;2023-10-09T01:04:41;20.57;;;18.90;;
7729;SDS011;3908;52.310;7.230;2023-10-09T01:07:29;21.17;;;19.60;;
7729;SDS011;3908;52.310;7.230;2023-10-09T01:10:18;23.50;;;22.03;;
7729;SDS011;3908;52.310;7.230;2023-10-09T01:13:07;23.53;;;22.10;;
7729;SDS011;3908;52.310;7.230;2023-10-09T01:15:56;26.40;;;24.57;;
7729;SDS011;3908;52.310;7.230;2023-10-09T01:18:45;27.17;;;25.57;;
7729;SDS011;3908;52.310;7.230;2023-10-09T01:21:35;26.50;;;24.80;;
7729;SDS011;3908;52.310;7.230;2023-10-09T01:24:23;21.63;;;20.10;;
7729;SDS011;3908;52.310;7.230;2023-10-09T01:27:12;20.30;;;18.83;;
7729;SDS011;3908;52.310;7.230;2023-10-09T01:42:58;21.70;;;19.77;;
7729;SDS011;3908;52.310;7.230;2023-10-09T01:48:01;34.33;;;31.53;;
7729;SDS011;3908;52.310;7.230;2023-10-09T02:13:44;72.53;;;67.97;;
7729;SDS011;3908;52.310;7.230;2023-10-09T02:16:39;67.63;;;63.40;;
7729;SDS011;3908;52.310;7.230;2023-10-09T02:21:55;66.43;;;62.37;;
7729;SDS011;3908;52.310;7.230;2023-10-09T03:54:32;76.70;;;70.77;;
7729;SDS011;3908;52.310;7.230;2023-10-09T03:57:20;75.03;;;68.90;;
7729;SDS011;3908;52.310;7.230;2023-10-09T04:00:09;76.10;;;70.33;;
7729;SDS011;3908;52.310;7.230;2023-10-09T04:02:59;75.87;;;69.87;;
7729;SDS011;3908;52.310;7.230;2023-10-09T04:05:46;80.37;;;74.03;;
7729;SDS011;3908;52.310;7.230;2023-10-09T04:08:37;74.73;;;68.07;;
7729;SDS011;3908;52.310;7.230;2023-10-09T04:11:34;72.70;;;66.93;;
7729;SDS011;3908;52.310;7.230;2023-10-09T04:14:21;75.20;;;69.03;;
7729;SDS011;3908;52.310;7.230;2023-10-09T04:17:14;74.33;;;67.83;;
7729;SDS011;3908;52.310;7.230;2023-10-09T04:20:15;75.10;;;69.10;;
7729;SDS011;3908;52.310;7.230;2023-10-09T04:23:15;73.27;;;67.20;;
7729;SDS011;3908;52.310;7.230;2023-10-09T04:26:19;74.30;;;67.13;;
7729;SDS011;3908;52.310;7.230;2023-10-09T04:29:07;77.60;;;71.27;;
7729;SDS011;3908;52.310;7.230;2023-10-09T04:31:56;77.23;;;70.50;;
7729;SDS011;3908;52.310;7.230;2023-10-09T04:34:45;80.10;;;73.37;;
7729;SDS011;3908;52.310;7.230;2023-10-09T04:37:41;79.17;;;72.93;;
7729;SDS011;3908;52.310;7.230;2023-10-09T04:40:30;82.70;;;76.03;;
7729;SDS011;3908;52.310;7.230;2023-10-09T04:43:37;81.20;;;75.07;;
7729;SDS011;3908;52.310;7.230;2023-10-09T04:46:31;81.80;;;74.87;;
7729;SDS011;3908;52.310;7.230;2023-10-09T04:49:29;76.23;;;70.47;;
7729;SDS011;3908;52.310;7.230;2023-10-09T04:52:19;75.50;;;68.47;;
7729;SDS011;3908;52.310;7.230;2023-10-09T04:55:25;70.17;;;64.03;;
7729;SDS011;3908;52.310;7.230;2023-10-09T04:58:20;63.57;;;57.20;;
7729;SDS011;3908;52.310;7.230;2023-10-09T05:01:13;68.03;;;61.33;;
7729;SDS011;3908;52.310;7.230;2023-10-09T05:04:23;53.93;;;48.87;;
7729;SDS011;3908;52.310;7.230;2023-10-09T05:07:29;54.23;;;48.57;;
7729;SDS011;3908;52.310;7.230;2023-10-09T05:10:40;54.70;;;49.33;;
7729;SDS011;3908;52.310;7.230;2023-10-09T05:13:39;52.97;;;47.70;;
7729;SDS011;3908;52.310;7.230;2023-10-09T05:16:32;50.80;;;45.80;;
7729;SDS011;3908;52.310;7.230;2023-10-09T05:19:19;50.57;;;45.03;;
7729;SDS011;3908;52.310;7.230;2023-10-09T05:22:20;48.30;;;43.37;;
7729;SDS011;3908;52.310;7.230;2023-10-09T05:25:16;51.87;;;46.67;;
7729;SDS011;3908;52.310;7.230;2023-10-09T05:28:23;52.43;;;47.33;;
7729;SDS011;3908;52.310;7.230;2023-10-09T05:31:33;51.20;;;45.77;;
7729;SDS011;3908;52.310;7.230;2023-10-09T05:34:42;50.07;;;42.93;;
7729;SDS011;3908;52.310;7.230;2023-10-09T05:48:05;53.53;;;47.97;;
7729;SDS011;3908;52.310;7.230;2023-10-09T05:51:12;57.53;;;51.97;;
7729;SDS011;3908;52.310;7.230;2023-10-09T05:53:58;65.43;;;59.43;;
7729;SDS011;3908;52.310;7.230;2023-10-09T05:57:02;60.10;;;53.97;;
7729;SDS011;3908;52.310;7.230;2023-10-09T06:00:07;59.03;;;53.23;;
7729;SDS011;3908;52.310;7.230;2023-10-09T06:03:12;64.53;;;58.73;;
7729;SDS011;3908;52.310;7.230;2023-10-09T06:06:11;54.47;;;49.70;;
7729;SDS011;3908;52.310;7.230;2023-10-09T06:09:18;60.93;;;55.23;;
7729;SDS011;3908;52.310;7.230;2023-10-09T06:12:35;57.77;;;52.17;;
7729;SDS011;3908;52.310;7.230;2023-10-09T06:15:45;61.10;;;55.47;;
7729;SDS011;3908;52.310;7.230;2023-10-09T06:18:56;56.20;;;50.93;;
7729;SDS011;3908;52.310;7.230;2023-10-09T06:21:53;59.07;;;53.67;;
7729;SDS011;3908;52.310;7.230;2023-10-09T06:24:57;61.93;;;56.27;;
7729;SDS011;3908;52.310;7.230;2023-10-09T06:27:54;54.97;;;49.60;;
7729;SDS011;3908;52.310;7.230;2023-10-09T06:30:44;55.50;;;49.60;;
7729;SDS011;3908;52.310;7.230;2023-10-09T06:33:32;57.03;;;51.60;;
7729;SDS011;3908;52.310;7.230;2023-10-09T06:36:39;57.67;;;51.27;;
7729;SDS011;3908;52.310;7.230;2023-10-09T06:39:38;56.40;;;51.50;;
7729;SDS011;3908;52.310;7.230;2023-10-09T06:42:54;57.83;;;52.10;;
7729;SDS011;3908;52.310;7.230;2023-10-09T06:45:41;55.53;;;50.03;;
7729;SDS011;3908;52.310;7.230;2023-10-09T06:48:30;56.33;;;51.03;;
7729;SDS011;3908;52.310;7.230;2023-10-09T06:51:42;63.03;;;56.73;;
7729;SDS011;3908;52.310;7.230;2023-10-09T06:54:29;64.67;;;58.93;;
7729;SDS011;3908;52.310;7.230;2023-10-09T06:57:22;70.43;;;64.33;;
7729;SDS011;3908;52.310;7.230;2023-10-09T07:00:37;72.30;;;65.93;;
7729;SDS011;3908;52.310;7.230;2023-10-09T07:04:05;70.30;;;64.30;;
7729;SDS011;3908;52.310;7.230;2023-10-09T07:07:05;80.07;;;73.50;;
7729;SDS011;3908;52.310;7.230;2023-10-09T07:09:52;94.40;;;87.07;;
7729;SDS011;3908;52.310;7.230;2023-10-09T07:12:57;84.63;;;77.63;;
7729;SDS011;3908;52.310;7.230;2023-10-09T07:15:43;91.17;;;83.77;;
7729;SDS011;3908;52.310;7.230;2023-10-09T07:18:47;79.33;;;73.23;;
7729;SDS011;3908;52.310;7.230;2023-10-09T07:21:43;71.80;;;65.90;;
7729;SDS011;3908;52.310;7.230;2023-10-09T07:24:38;76.53;;;70.33;;
7729;SDS011;3908;52.310;7.230;2023-10-09T07:27:30;81.43;;;74.53;;
7729;SDS011;3908;52.310;7.230;2023-10-09T07:30:33;76.93;;;70.23;;
7729;SDS011;3908;52.310;7.230;2023-10-09T07:33:22;81.47;;;74.77;;
7729;SDS011;3908;52.310;7.230;2023-10-09T07:36:22;85.77;;;78.77;;
7729;SDS011;3908;52.310;7.230;2023-10-09T07:39:19;81.97;;;75.57;;
7729;SDS011;3908;52.310;7.230;2023-10-09T07:42:09;82.43;;;75.30;;
7729;SDS011;3908;52.310;7.230;2023-10-09T07:45:05;78.20;;;72.00;;
7729;SDS011;3908;52.310;7.230;2023-10-09T07:48:18;70.37;;;64.67;;
7729;SDS011;3908;52.310;7.230;2023-10-09T07:51:11;73.33;;;67.60;;
7729;SDS011;3908;52.310;7.230;2023-10-09T07:53:58;88.00;;;81.40;;
7729;SDS011;3908;52.310;7.230;2023-10-09T07:56:52;81.43;;;74.63;;
7729;SDS011;3908;52.310;7.230;2023-10-09T07:59:40;77.37;;;71.00;;
7729;SDS011;3908;52.310;7.230;2023-10-09T08:02:35;78.60;;;72.17;;
7729;SDS011;3908;52.310;7.230;2023-10-09T08:05:24;87.47;;;80.80;;
7729;SDS011;3908;52.310;7.230;2023-10-09T08:08:18;91.37;;;84.53;;
7729;SDS011;3908;52.310;7.230;2023-10-09T08:11:24;89.97;;;82.97;;
7729;SDS011;3908;52.310;7.230;2023-10-09T08:14:28;88.47;;;82.17;;
7729;SDS011;3908;52.310;7.230;2023-10-09T08:17:35;93.67;;;86.83;;
7729;SDS011;3908;52.310;7.230;2023-10-09T08:20:22;102.50;;;95.33;;
7729;SDS011;3908;52.310;7.230;2023-10-09T08:23:11;92.53;;;85.57;;
7729;SDS011;3908;52.310;7.230;2023-10-09T08:26:08;88.53;;;82.33;;
7729;SDS011;3908;52.310;7.230;2023-10-09T08:28:59;87.03;;;80.30;;
7729;SDS011;3908;52.310;7.230;2023-10-09T08:32:01;88.63;;;82.13;;
7729;SDS011;3908;52.310;7.230;2023-10-09T08:35:08;94.13;;;87.60;;
7729;SDS011;3908;52.310;7.230;2023-10-09T08:38:14;105.10;;;97.57;;
7729;SDS011;3908;52.310;7.230;2023-10-09T08:41:10;117.67;;;109.93;;
7729;SDS011;3908;52.310;7.230;2023-10-09T08:44:04;123.93;;;116.07;;
7729;SDS011;3908;52.310;7.230;2023-10-09T08:46:51;126.63;;;118.17;;
7729;SDS011;3908;52.310;7.230;2023-10-09T08:49:40;115.23;;;107.80;;
7729;SDS011;3908;52.310;7.230;2023-10-09T08:52:29;120.67;;;112.33;;
7729;SDS011;3908;52.310;7.230;2023-10-09T08:55:21;115.47;;;107.50;;
7729;SDS011;3908;52.310;7.230;2023-10-09T08:58:08;109.10;;;101.40;;
7729;SDS011;3908;52.310;7.230;2023-10-09T09:01:06;117.67;;;109.80;;
7729;SDS011;3908;52.310;7.230;2023-10-09T09:03:53;112.23;;;105.10;;
7729;SDS011;3908;52.310;7.230;2023-10-09T09:06:42;107.70;;;100.17;;
7729;SDS011;3908;52.310;7.230;2023-10-09T09:09:30;92.97;;;86.93;;
7729;SDS011;3908;52.310;7.230;2023-10-09T09:12:20;90.43;;;83.73;;
7729;SDS011;3908;52.310;7.230;2023-10-09T09:15:13;87.90;;;82.00;;
7729;SDS011;3908;52.310;7.230;2023-10-09T09:18:04;79.87;;;74.50;;
7729;SDS011;3908;52.310;7.230;2023-10-09T09:20:54;84.90;;;78.70;;
7729;SDS011;3908;52.310;7.230;2023-10-09T09:23:43;105.53;;;98.47;;
7729;SDS011;3908;52.310;7.230;2023-10-09T09:26:43;132.20;;;124.20;;
7729;SDS011;3908;52.310;7.230;2023-10-09T09:29:39;134.43;;;126.07;;
7729;SDS011;3908;52.310;7.230;2023-10-09T09:32:28;145.10;;;136.20;;
7729;SDS011;3908;52.310;7.230;2023-10-09T09:35:23;131.10;;;123.30;;
7729;SDS011;3908;52.310;7.230;2023-10-09T09:38:13;116.97;;;109.87;;
7729;SDS011;3908;52.310;7.230;2023-10-09T09:41:06;118.80;;;111.63;;
7729;SDS011;3908;52.310;7.230;2023-10-09T09:43:55;131.23;;;123.37;;
7729;SDS011;3908;52.310;7.230;2023-10-09T09:46:42;138.40;;;130.53;;
7729;SDS011;3908;52.310;7.230;2023-10-09T09:49:29;128.20;;;120.23;;
7729;SDS011;3908;52.310;7.230;2023-10-09T09:52:18;119.77;;;112.33;;
7729;SDS011;3908;52.310;7.230;2023-10-09T09:55:10;110.93;;;104.10;;
7729;SDS011;3908;52.310;7.230;2023-10-09T09:58:01;106.67;;;99.53;;
7729;SDS011;3908;52.310;7.230;2023-10-09T10:00:53;92.93;;;87.07;;
7729;SDS011;3908;52.310;7.230;2023-10-09T10:03:44;102.50;;;95.83;;
7729;SDS011;3908;52.310;7.230;2023-10-09T10:06:32;92.83;;;86.57;;
7729;SDS011;3908;52.310;7.230;2023-10-09T10:09:33;96.33;;;89.90;;
7729;SDS011;3908;52.310;7.230;2023-10-09T10:15:59;93.83;;;87.83;;
7729;SDS011;3908;52.310;7.230;2023-10-09T10:18:54;91.00;;;84.93;;
7729;SDS011;3908;52.310;7.230;2023-10-09T10:21:48;100.47;;;94.13;;
7729;SDS011;3908;52.310;7.230;2023-10-09T10:24:42;122.90;;;115.13;;
7729;SDS011;3908;52.310;7.230;2023-10-09T10:27:38;114.90;;;108.17;;
7729;SDS011;3908;52.310;7.230;2023-10-09T10:30:45;108.67;;;101.50;;
7729;SDS011;3908;52.310;7.230;2023-10-09T10:36:40;97.17;;;90.80;;
7729;SDS011;3908;52.310;7.230;2023-10-09T10:39:30;89.80;;;83.10;;
7729;SDS011;3908;52.310;7.230;2023-10-09T10:42:46;83.70;;;78.20;;
7729;SDS011;3908;52.310;7.230;2023-10-09T10:45:46;87.63;;;82.17;;
7729;SDS011;3908;52.310;7.230;2023-10-09T10:48:33;83.47;;;78.30;;
7729;SDS011;3908;52.310;7.230;2023-10-09T10:51:27;86.53;;;81.43;;
7729;SDS011;3908;52.310;7.230;2023-10-09T10:54:24;84.63;;;79.67;;
7729;SDS011;3908;52.310;7.230;2023-10-09T10:57:28;77.13;;;72.37;;
7729;SDS011;3908;52.310;7.230;2023-10-09T11:00:15;79.93;;;75.23;;
7729;SDS011;3908;52.310;7.230;2023-10-09T11:03:25;67.13;;;62.87;;
7729;SDS011;3908;52.310;7.230;2023-10-09T11:06:14;68.23;;;63.83;;
7729;SDS011;3908;52.310;7.230;2023-10-09T11:09:10;72.37;;;67.97;;
7729;SDS011;3908;52.310;7.230;2023-10-09T11:12:11;69.40;;;64.90;;
7729;SDS011;3908;52.310;7.230;2023-10-09T11:15:11;71.87;;;67.40;;
7729;SDS011;3908;52.310;7.230;2023-10-09T11:18:15;70.13;;;65.67;;
7729;SDS011;3908;52.310;7.230;2023-10-09T11:21:06;76.67;;;72.07;;
7729;SDS011;3908;52.310;7.230;2023-10-09T11:24:17;81.20;;;75.73;;
7729;SDS011;3908;52.310;7.230;2023-10-09T11:27:13;80.87;;;76.07;;
7729;SDS011;3908;52.310;7.230;2023-10-09T11:30:09;84.23;;;79.23;;
7729;SDS011;3908;52.310;7.230;2023-10-09T11:36:15;81.57;;;76.40;;
7729;SDS011;3908;52.310;7.230;2023-10-09T11:39:01;83.67;;;78.67;;
7729;SDS011;3908;52.310;7.230;2023-10-09T11:42:03;152.80;;;143.90;;
7729;SDS011;3908;52.310;7.230;2023-10-09T11:44:52;180.47;;;169.47;;
7729;SDS011;3908;52.310;7.230;2023-10-09T11:47:40;116.20;;;109.57;;
7729;SDS011;3908;52.310;7.230;2023-10-09T11:50:40;69.70;;;65.33;;
7729;SDS011;3908;52.310;7.230;2023-10-09T11:53:39;31.17;;;28.23;;
7729;SDS011;3908;52.310;7.230;2023-10-09T11:56:24;44.00;;;40.57;;
7729;SDS011;3908;52.310;7.230;2023-10-09T11:59:12;152.00;;;143.85;;
7729;SDS011;3908;52.310;7.230;2023-10-09T12:02:03;214.27;;;202.68;;
7729;SDS011;3908;52.310;7.230;2023-10-09T12:04:50;233.27;;;220.38;;
7729;SDS011;3908;52.310;7.230;2023-10-09T12:10:16;101.90;;;96.25;;
7729;SDS011;3908;52.310;7.230;2023-10-09T12:13:10;100.85;;;95.07;;
7729;SDS011;3908;52.310;7.230;2023-10-09T12:16:00;103.20;;;97.93;;
7729;SDS011;3908;52.310;7.230;2023-10-09T12:18:48;97.07;;;92.17;;
7729;SDS011;3908;52.310;7.230;2023-10-09T12:21:38;103.30;;;97.87;;
7729;SDS011;3908;52.310;7.230;2023-10-09T12:24:28;97.17;;;91.87;;
7729;SDS011;3908;52.310;7.230;2023-10-09T12:27:15;96.87;;;91.90;;
7729;SDS011;3908;52.310;7.230;2023-10-09T12:35:15;98.10;;;92.73;;
7729;SDS011;3908;52.310;7.230;2023-10-09T12:38:03;105.40;;;100.23;;
7729;SDS011;3908;52.310;7.230;2023-10-09T12:41:00;102.50;;;97.50;;
7729;SDS011;3908;52.310;7.230;2023-10-09T12:43:53;94.67;;;89.80;;
7729;SDS011;3908;52.310;7.230;2023-10-09T12:46:43;92.53;;;87.43;;
7729;SDS011;3908;52.310;7.230;2023-10-09T12:49:37;80.73;;;76.60;;
7729;SDS011;3908;52.310;7.230;2023-10-09T12:52:27;87.27;;;82.47;;
7729;SDS011;3908;52.310;7.230;2023-10-09T12:55:15;99.73;;;94.20;;
7729;SDS011;3908;52.310;7.230;2023-10-09T12:58:05;104.47;;;99.03;;
7729;SDS011;3908;52.310;7.230;2023-10-09T13:00:52;100.30;;;95.00;;
7729;SDS011;3908;52.310;7.230;2023-10-09T13:03:39;101.90;;;96.80;;
7729;SDS011;3908;52.310;7.230;2023-10-09T13:06:26;100.20;;;95.00;;
7729;SDS011;3908;52.310;7.230;2023-10-09T13:09:14;98.32;;;93.13;;
7729;SDS011;3908;52.310;7.230;2023-10-09T13:12:01;104.00;;;98.15;;
7729;SDS011;3908;52.310;7.230;2023-10-09T13:14:48;113.18;;;106.78;;
7729;SDS011;3908;52.310;7.230;2023-10-09T13:17:38;133.27;;;126.67;;
7729;SDS011;3908;52.310;7.230;2023-10-09T13:20:26;141.27;;;134.43;;
7729;SDS011;3908;52.310;7.230;2023-10-09T13:23:13;101.85;;;97.25;;
7729;SDS011;3908;52.310;7.230;2023-10-09T13:26:03;64.15;;;60.45;;
7729;SDS011;3908;52.310;7.230;2023-10-09T13:28:54;55.00;;;51.90;;
7729;SDS011;3908;52.310;7.230;2023-10-09T13:31:44;53.45;;;50.40;;
7729;SDS011;3908;52.310;7.230;2023-10-09T13:34:33;54.13;;;50.85;;
7729;SDS011;3908;52.310;7.230;2023-10-09T13:37:20;51.70;;;48.60;;
7729;SDS011;3908;52.310;7.230;2023-10-09T13:40:08;58.78;;;55.40;;
7729;SDS011;3908;52.310;7.230;2023-10-09T13:42:58;79.90;;;76.10;;
7729;SDS011;3908;52.310;7.230;2023-10-09T13:45:45;112.10;;;106.68;;
7729;SDS011;3908;52.310;7.230;2023-10-09T13:48:35;121.90;;;115.63;;
7729;SDS011;3908;52.310;7.230;2023-10-09T13:51:26;126.07;;;119.67;;
7729;SDS011;3908;52.310;7.230;2023-10-09T13:54:14;116.82;;;110.43;;
7729;SDS011;3908;52.310;7.230;2023-10-09T13:57:09;111.23;;;105.53;;
7729;SDS011;3908;52.310;7.230;2023-10-09T13:59:59;116.80;;;110.63;;
7729;SDS011;3908;52.310;7.230;2023-10-09T14:02:45;117.70;;;111.47;;
7729;SDS011;3908;52.310;7.230;2023-10-09T14:05:32;115.95;;;110.13;;
7729;SDS011;3908;52.310;7.230;2023-10-09T14:08:20;122.38;;;116.43;;
7729;SDS011;3908;52.310;7.230;2023-10-09T14:11:10;125.82;;;119.22;;
7729;SDS011;3908;52.310;7.230;2023-10-09T14:13:58;127.20;;;120.65;;
7729;SDS011;3908;52.310;7.230;2023-10-09T14:16:49;132.15;;;125.32;;
7729;SDS011;3908;52.310;7.230;2023-10-09T14:19:43;127.55;;;120.95;;
7729;SDS011;3908;52.310;7.230;2023-10-09T14:22:33;130.95;;;123.45;;
7729;SDS011;3908;52.310;7.230;2023-10-09T14:25:28;110.13;;;104.13;;
7729;SDS011;3908;52.310;7.230;2023-10-09T14:28:15;108.30;;;102.40;;
7729;SDS011;3908;52.310;7.230;2023-10-09T14:31:07;102.00;;;96.10;;
7729;SDS011;3908;52.310;7.230;2023-10-09T14:33:59;103.33;;;97.87;;
7729;SDS011;3908;52.310;7.230;2023-10-09T14:36:50;102.17;;;96.60;;
7729;SDS011;3908;52.310;7.230;2023-10-09T14:39:37;107.53;;;101.77;;
7729;SDS011;3908;52.310;7.230;2023-10-09T14:42:24;111.33;;;105.40;;
7729;SDS011;3908;52.310;7.230;2023-10-09T14:45:13;112.93;;;107.00;;
7729;SDS011;3908;52.310;7.230;2023-10-09T14:48:01;115.85;;;109.63;;
7729;SDS011;3908;52.310;7.230;2023-10-09T14:50:49;124.10;;;117.87;;
7729;SDS011;3908;52.310;7.230;2023-10-09T14:53:38;115.47;;;109.67;;
7729;SDS011;3908;52.310;7.230;2023-10-09T14:56:29;118.43;;;112.53;;
7729;SDS011;3908;52.310;7.230;2023-10-09T14:59:16;121.80;;;115.27;;
7729;SDS011;3908;52.310;7.230;2023-10-09T15:02:07;125.63;;;118.73;;
7729;SDS011;3908;52.310;7.230;2023-10-09T15:04:57;120.93;;;114.80;;
7729;SDS011;3908;52.310;7.230;2023-10-09T15:07:45;116.47;;;110.83;;
7729;SDS011;3908;52.310;7.230;2023-10-09T15:10:33;108.20;;;103.03;;
7729;SDS011;3908;52.310;7.230;2023-10-09T15:13:22;117.50;;;110.80;;
7729;SDS011;3908;52.310;7.230;2023-10-09T15:16:13;116.77;;;110.93;;
7729;SDS011;3908;52.310;7.230;2023-10-09T15:18:59;111.00;;;105.37;;
7729;SDS011;3908;52.310;7.230;2023-10-09T15:21:48;106.67;;;101.03;;
7729;SDS011;3908;52.310;7.230;2023-10-09T15:24:37;111.93;;;106.50;;
7729;SDS011;3908;52.310;7.230;2023-10-09T15:27:23;115.87;;;110.00;;
7729;SDS011;3908;52.310;7.230;2023-10-09T15:30:11;110.53;;;104.77;;
7729;SDS011;3908;52.310;7.230;2023-10-09T15:33:00;104.73;;;99.13;;
7729;SDS011;3908;52.310;7.230;2023-10-09T15:35:46;119.43;;;113.00;;
7729;SDS011;3908;52.310;7.230;2023-10-09T15:38:35;118.97;;;112.90;;
7729;SDS011;3908;52.310;7.230;2023-10-09T15:41:28;111.18;;;105.60;;
7729;SDS011;3908;52.310;7.230;2023-10-09T15:44:16;113.10;;;107.28;;
7729;SDS011;3908;52.310;7.230;2023-10-09T15:47:03;123.67;;;117.57;;
7729;SDS011;3908;52.310;7.230;2023-10-09T15:49:53;107.17;;;101.53;;
7729;SDS011;3908;52.310;7.230;2023-10-09T15:52:41;109.17;;;103.70;;
7729;SDS011;3908;52.310;7.230;2023-10-09T15:55:27;112.70;;;106.30;;
7729;SDS011;3908;52.310;7.230;2023-10-09T15:58:15;108.35;;;102.72;;
7729;SDS011;3908;52.310;7.230;2023-10-09T16:01:05;107.57;;;101.93;;
7729;SDS011;3908;52.310;7.230;2023-10-09T16:03:52;107.17;;;101.87;;
7729;SDS011;3908;52.310;7.230;2023-10-09T16:06:43;105.37;;;99.97;;
7729;SDS011;3908;52.310;7.230;2023-10-09T16:09:30;97.30;;;92.47;;
7729;SDS011;3908;52.310;7.230;2023-10-09T16:12:20;85.43;;;80.87;;
7729;SDS011;3908;52.310;7.230;2023-10-09T16:15:10;81.60;;;77.00;;
7729;SDS011;3908;52.310;7.230;2023-10-09T16:17:59;80.70;;;76.07;;
7729;SDS011;3908;52.310;7.230;2023-10-09T16:20:48;73.97;;;69.90;;
7729;SDS011;3908;52.310;7.230;2023-10-09T16:23:35;73.47;;;68.93;;
7729;SDS011;3908;52.310;7.230;2023-10-09T16:26:23;71.77;;;67.73;;
7729;SDS011;3908;52.310;7.230;2023-10-09T16:29:10;64.40;;;59.90;;
7729;SDS011;3908;52.310;7.230;2023-10-09T16:31:59;62.40;;;58.90;;
7729;SDS011;3908;52.310;7.230;2023-10-09T16:34:45;65.03;;;61.10;;
7729;SDS011;3908;52.310;7.230;2023-10-09T16:37:32;65.07;;;61.27;;
7729;SDS011;3908;52.310;7.230;2023-10-09T16:40:19;64.90;;;60.80;;
7729;SDS011;3908;52.310;7.230;2023-10-09T16:43:06;65.70;;;61.60;;
7729;SDS011;3908;52.310;7.230;2023-10-09T16:46:01;72.07;;;64.33;;
7729;SDS011;3908;52.310;7.230;2023-10-09T16:48:55;64.28;;;60.22;;
7729;SDS011;3908;52.310;7.230;2023-10-09T16:51:47;64.80;;;60.78;;
7729;SDS011;3908;52.310;7.230;2023-10-09T16:54:34;69.73;;;65.50;;
7729;SDS011;3908;52.310;7.230;2023-10-09T16:57:23;65.93;;;61.93;;
7729;SDS011;3908;52.310;7.230;2023-10-09T17:00:14;69.97;;;65.37;;
7729;SDS011;3908;52.310;7.230;2023-10-09T17:03:13;66.20;;;61.83;;
7729;SDS011;3908;52.310;7.230;2023-10-09T17:06:09;64.47;;;60.07;;
7729;SDS011;3908;52.310;7.230;2023-10-09T17:08:56;63.53;;;59.43;;
7729;SDS011;3908;52.310;7.230;2023-10-09T17:11:46;70.47;;;66.17;;
7729;SDS011;3908;52.310;7.230;2023-10-09T17:14:37;64.83;;;61.13;;
7729;SDS011;3908;52.310;7.230;2023-10-09T17:17:29;65.93;;;61.33;;
7729;SDS011;3908;52.310;7.230;2023-10-09T17:20:17;70.67;;;65.07;;
7729;SDS011;3908;52.310;7.230;2023-10-09T17:23:06;63.40;;;59.43;;
7729;SDS011;3908;52.310;7.230;2023-10-09T17:25:56;60.13;;;56.43;;
7729;SDS011;3908;52.310;7.230;2023-10-09T17:28:48;54.30;;;51.07;;
7729;SDS011;3908;52.310;7.230;2023-10-09T17:31:37;57.67;;;54.03;;
7729;SDS011;3908;52.310;7.230;2023-10-09T17:34:25;56.13;;;52.50;;
7729;SDS011;3908;52.310;7.230;2023-10-09T17:37:12;58.27;;;54.53;;
7729;SDS011;3908;52.310;7.230;2023-10-09T17:40:00;58.83;;;54.97;;
7729;SDS011;3908;52.310;7.230;2023-10-09T17:42:48;61.97;;;58.37;;
7729;SDS011;3908;52.310;7.230;2023-10-09T17:45:41;62.53;;;57.77;;
7729;SDS011;3908;52.310;7.230;2023-10-09T17:48:30;64.50;;;60.43;;
7729;SDS011;3908;52.310;7.230;2023-10-09T17:51:20;63.33;;;59.50;;
7729;SDS011;3908;52.310;7.230;2023-10-09T17:54:08;61.60;;;57.90;;
7729;SDS011;3908;52.310;7.230;2023-10-09T17:57:09;72.50;;;68.23;;
7729;SDS011;3908;52.310;7.230;2023-10-09T17:59:58;120.53;;;73.67;;
7729;SDS011;3908;52.310;7.230;2023-10-09T18:02:46;72.10;;;68.03;;
7729;SDS011;3908;52.310;7.230;2023-10-09T18:05:35;85.73;;;79.77;;
7729;SDS011;3908;52.310;7.230;2023-10-09T18:08:22;81.13;;;76.30;;
7729;SDS011;3908;52.310;7.230;2023-10-09T18:11:14;86.43;;;81.17;;
7729;SDS011;3908;52.310;7.230;2023-10-09T18:14:04;79.80;;;75.10;;
7729;SDS011;3908;52.310;7.230;2023-10-09T18:16:50;80.40;;;75.87;;
7729;SDS011;3908;52.310;7.230;2023-10-09T18:19:38;76.33;;;71.77;;
7729;SDS011;3908;52.310;7.230;2023-10-09T18:22:28;74.97;;;70.20;;
7729;SDS011;3908;52.310;7.230;2023-10-09T18:25:18;79.07;;;74.50;;
7729;SDS011;3908;52.310;7.230;2023-10-09T18:28:06;86.77;;;82.33;;
7729;SDS011;3908;52.310;7.230;2023-10-09T18:30:58;82.33;;;78.00;;
7729;SDS011;3908;52.310;7.230;2023-10-09T18:33:45;103.77;;;96.17;;
7729;SDS011;3908;52.310;7.230;2023-10-09T18:36:36;98.23;;;92.33;;
7729;SDS011;3908;52.310;7.230;2023-10-09T18:39:24;104.57;;;98.90;;
7729;SDS011;3908;52.310;7.230;2023-10-09T18:42:14;111.57;;;105.67;;
7729;SDS011;3908;52.310;7.230;2023-10-09T18:45:05;109.27;;;103.33;;
7729;SDS011;3908;52.310;7.230;2023-10-09T18:47:55;106.83;;;101.10;;
7729;SDS011;3908;52.310;7.230;2023-10-09T18:50:42;98.17;;;93.03;;
7729;SDS011;3908;52.310;7.230;2023-10-09T18:53:29;104.47;;;98.60;;
7729;SDS011;3908;52.310;7.230;2023-10-09T18:56:17;109.43;;;103.73;;
7729;SDS011;3908;52.310;7.230;2023-10-09T18:59:05;102.50;;;97.10;;
7729;SDS011;3908;52.310;7.230;2023-10-09T19:01:55;97.70;;;92.60;;
7729;SDS011;3908;52.310;7.230;2023-10-09T19:04:43;104.50;;;98.90;;
7729;SDS011;3908;52.310;7.230;2023-10-09T19:07:32;94.13;;;89.63;;
7729;SDS011;3908;52.310;7.230;2023-10-09T19:10:21;89.47;;;84.93;;
7729;SDS011;3908;52.310;7.230;2023-10-09T19:13:10;90.35;;;85.97;;
7729;SDS011;3908;52.310;7.230;2023-10-09T19:15:57;92.67;;;87.03;;
7729;SDS011;3908;52.310;7.230;2023-10-09T19:18:44;92.67;;;87.40;;
7729;SDS011;3908;52.310;7.230;2023-10-09T19:21:32;88.90;;;83.80;;
7729;SDS011;3908;52.310;7.230;2023-10-09T19:24:20;85.17;;;80.17;;
7729;SDS011;3908;52.310;7.230;2023-10-09T19:27:06;81.53;;;77.33;;
7729;SDS011;3908;52.310;7.230;2023-10-09T19:29:57;84.33;;;79.93;;
7729;SDS011;3908;52.310;7.230;2023-10-09T19:32:46;90.47;;;84.23;;
7729;SDS011;3908;52.310;7.230;2023-10-09T19:35:33;79.93;;;75.93;;
7729;SDS011;3908;52.310;7.230;2023-10-09T19:38:21;79.67;;;75.30;;
7729;SDS011;3908;52.310;7.230;2023-10-09T19:41:11;81.50;;;77.07;;
7729;SDS011;3908;52.310;7.230;2023-10-09T19:43:59;82.00;;;77.63;;
7729;SDS011;3908;52.310;7.230;2023-10-09T19:46:52;81.93;;;77.90;;
7729;SDS011;3908;52.310;7.230;2023-10-09T19:49:39;81.07;;;76.80;;
7729;SDS011;3908;52.310;7.230;2023-10-09T19:52:26;73.37;;;69.57;;
7729;SDS011;3908;52.310;7.230;2023-10-09T19:55:16;83.03;;;77.90;;
7729;SDS011;3908;52.310;7.230;2023-10-09T19:58:06;74.57;;;70.67;;
7729;SDS011;3908;52.310;7.230;2023-10-09T20:00:53;80.63;;;75.87;;
7729;SDS011;3908;52.310;7.230;2023-10-09T20:03:40;76.80;;;72.70;;
7729;SDS011;3908;52.310;7.230;2023-10-09T20:06:29;70.30;;;66.73;;
7729;SDS011;3908;52.310;7.230;2023-10-09T20:09:15;69.43;;;65.73;;
7729;SDS011;3908;52.310;7.230;2023-10-09T20:12:07;74.33;;;70.27;;
7729;SDS011;3908;52.310;7.230;2023-10-09T20:14:54;74.87;;;70.90;;